createdAt,value
2017-05-27T00:06:59.717Z,89.6
2017-05-27T00:17:09.107Z,91.3
2017-05-27T00:27:18.491Z,92.3
2017-05-27T00:37:27.842Z,91.9
2017-05-27T00:47:37.174Z,91.5
2017-05-27T00:57:46.520Z,89.5
2017-05-27T01:07:55.866Z,89.1
2017-05-27T01:18:05.258Z,89.1
2017-05-27T01:28:14.669Z,89.1
2017-05-27T01:38:24.061Z,89.1
2017-05-27T01:48:33.506Z,90.2
2017-05-27T01:58:42.908Z,91
2017-05-27T02:08:52.318Z,91.5
2017-05-27T02:19:01.762Z,93.2
2017-05-27T02:29:11.255Z,93.8
2017-05-27T02:39:20.738Z,94.7
2017-05-27T02:49:30.231Z,97
2017-05-27T02:59:39.751Z,98.6
2017-05-27T03:09:49.280Z,100
2017-05-27T03:19:58.880Z,100
2017-05-27T03:30:08.519Z,99.8
2017-05-27T03:40:18.117Z,99.4
2017-05-27T03:50:27.636Z,98.4
2017-05-27T04:00:37.026Z,97.8
2017-05-27T04:10:46.329Z,95.5
2017-05-27T04:20:55.519Z,94
2017-05-27T04:31:04.627Z,90.7
2017-05-27T04:41:13.632Z,90.5
2017-05-27T04:51:22.478Z,88.7
2017-05-27T05:01:31.266Z,88.3
2017-05-27T05:11:39.936Z,85.9
2017-05-27T05:21:48.473Z,83.7
2017-05-27T05:31:56.866Z,83.9
2017-05-27T05:42:05.234Z,80.5
2017-05-27T05:52:13.481Z,80.4
2017-05-27T06:02:21.621Z,79.2
2017-05-27T06:12:29.655Z,79.3
2017-05-27T06:22:37.603Z,78.4
2017-05-27T06:32:45.501Z,76.4
2017-05-27T06:42:53.329Z,73.9
2017-05-27T06:53:01.054Z,73
2017-05-27T07:03:08.685Z,70.7
2017-05-27T07:13:16.289Z,70.9
2017-05-27T07:23:23.799Z,70.2
2017-05-27T07:33:31.297Z,68.1
2017-05-27T07:43:38.724Z,68
2017-05-27T07:53:46.123Z,63.9
2017-05-27T08:03:53.428Z,63.9
2017-05-27T08:14:00.722Z,62.4
2017-05-27T08:24:07.964Z,61
2017-05-27T08:34:15.126Z,57.4
2017-05-27T08:44:22.189Z,57.8
2017-05-27T08:54:29.184Z,55.4
2017-05-27T09:04:36.086Z,54.3
2017-05-27T09:14:42.964Z,54.5
2017-05-27T09:24:49.825Z,54.5
2017-05-27T09:34:56.665Z,52.5
2017-05-27T09:45:03.528Z,52
2017-05-27T09:55:10.370Z,51
2017-05-27T10:05:17.220Z,49.7
2017-05-27T10:15:24.018Z,50.3
2017-05-27T10:25:30.920Z,49.6
2017-05-27T10:35:37.845Z,46.6
2017-05-27T10:45:44.703Z,45.5
2017-05-27T10:55:51.576Z,48.4
2017-05-27T11:05:58.488Z,46.5
2017-05-27T11:16:05.441Z,45.2
2017-05-27T11:26:12.396Z,45.5
2017-05-27T11:36:19.380Z,46.7
2017-05-27T11:46:26.349Z,45.4
2017-05-27T11:56:33.321Z,42
2017-05-27T12:06:40.283Z,40.2
2017-05-27T12:16:47.217Z,39.2
2017-05-27T12:26:53.970Z,38.4
2017-05-27T12:37:00.683Z,38.5
2017-05-27T12:47:07.425Z,37.5
2017-05-27T12:57:14.113Z,35.9
2017-05-27T13:07:20.774Z,36.2
2017-05-27T13:17:27.395Z,35.8
2017-05-27T13:27:34.033Z,36
2017-05-27T13:37:40.632Z,34.8
2017-05-27T13:47:47.173Z,34
2017-05-27T13:57:53.710Z,34
2017-05-27T14:08:00.197Z,34.8
2017-05-27T14:18:06.600Z,33.9
2017-05-27T14:28:12.976Z,34
2017-05-27T14:38:19.366Z,33.6
2017-05-27T14:48:25.740Z,33.9
2017-05-27T14:58:32.077Z,34.7
2017-05-27T15:08:38.513Z,34
2017-05-27T15:18:45.229Z,33.7
2017-05-27T15:28:51.771Z,35.1
2017-05-27T15:38:58.182Z,33.9
2017-05-27T15:49:04.482Z,35.1
2017-05-27T15:59:10.735Z,36.1
2017-05-27T16:09:16.917Z,37.2
2017-05-27T16:19:23.191Z,36.4
2017-05-27T16:29:29.584Z,36.3
2017-05-27T16:39:36.032Z,36.8
2017-05-27T16:49:42.533Z,37.7
2017-05-27T16:59:49.169Z,37.7
2017-05-27T17:09:55.865Z,38.5
2017-05-27T17:20:02.707Z,38.6
2017-05-27T17:30:09.812Z,39.1
2017-05-27T17:40:16.821Z,39.3
2017-05-27T17:50:23.846Z,39.2
2017-05-27T18:00:30.939Z,39.2
2017-05-27T18:10:38.082Z,40.1
2017-05-27T18:20:45.324Z,40.4
2017-05-27T18:30:52.652Z,41.7
2017-05-27T18:40:59.990Z,43.4
2017-05-27T18:51:07.450Z,44.7
2017-05-27T19:01:15.045Z,45.5
2017-05-27T19:11:22.827Z,47
2017-05-27T19:21:30.765Z,47.7
2017-05-27T19:31:38.831Z,48.4
2017-05-27T19:41:47.039Z,48.7
2017-05-27T19:51:55.366Z,49.2
2017-05-27T20:02:03.735Z,50.9
2017-05-27T20:12:12.132Z,50.9
2017-05-27T20:22:20.553Z,51.7
2017-05-27T20:32:29.005Z,52.9
2017-05-27T20:42:37.503Z,52.9
2017-05-27T20:52:46.009Z,51.6
2017-05-27T21:02:54.538Z,51
2017-05-27T21:13:02.995Z,49.9
2017-05-27T21:23:11.460Z,50.6
2017-05-27T21:33:19.907Z,49.5
2017-05-27T21:53:36.959Z,49.1
2017-05-27T22:03:45.491Z,50.5
2017-05-27T22:13:54.042Z,52.2
2017-05-27T22:24:02.586Z,52.8
2017-05-27T22:34:11.211Z,53.8
2017-05-27T22:44:19.766Z,54.5
2017-05-27T22:54:28.398Z,54.1
2017-05-27T23:04:37.023Z,55.7
2017-05-27T23:14:45.676Z,57.9
2017-05-27T23:24:54.358Z,58.5
2017-05-27T23:35:03.034Z,58.9
2017-05-27T23:45:11.708Z,60.4
2017-05-27T23:55:20.480Z,61
